Aguilar, Colorado
Current Conditions -  °F | °C
As of 12:54 AM on Saturday 25 Oct 2014 (Local Time) from KTAD Reporting Station
Clear Clear  
Wind Chill: 54°   Ceiling: Unl
Heat Index: 54°   Visibility: 10mi
Dew Point: 29°   Wind: 14mph
Humidity: 38%   Direction: 250°WSW
Pressure: 30.24"   Gusts: NA
Location:  37.4°N, 104.65°W
Report Text: KTAD 250654Z AUTO 25012KT 10SM CLR 12/M02 A3024 RMK AO2 SLP170 T01221017 402780078
Loading
Personal Weather Stations






























Interactive Weather Map
Tropical Storm Tracking
New forecast layout! Learn more

10-Day Weather Forecast

Advertisements
Track Severe Weather on mobile